sensor_id;sensor_type;location;lat;lon;timestamp;temperature;humidity
15426;DHT22;7812;50.072;7.036;2023-06-22T00:00:41;20.00;99.90
15426;DHT22;7812;50.072;7.036;2023-06-22T00:03:08;19.90;99.90
15426;DHT22;7812;50.072;7.036;2023-06-22T00:05:33;19.80;99.90
15426;DHT22;7812;50.072;7.036;2023-06-22T00:08:02;19.70;99.90
15426;DHT22;7812;50.072;7.036;2023-06-22T00:10:28;19.80;99.90
15426;DHT22;7812;50.072;7.036;2023-06-22T00:12:54;19.80;99.90
15426;DHT22;7812;50.072;7.036;2023-06-22T00:15:19;19.70;99.90
15426;DHT22;7812;50.072;7.036;2023-06-22T00:17:45;19.70;99.90
15426;DHT22;7812;50.072;7.036;2023-06-22T00:20:11;19.70;99.90
15426;DHT22;7812;50.072;7.036;2023-06-22T00:22:37;19.70;99.90
15426;DHT22;7812;50.072;7.036;2023-06-22T00:25:06;19.60;99.90
15426;DHT22;7812;50.072;7.036;2023-06-22T00:27:32;19.60;99.90
15426;DHT22;7812;50.072;7.036;2023-06-22T00:29:58;19.70;99.90
15426;DHT22;7812;50.072;7.036;2023-06-22T00:32:23;19.70;99.90
15426;DHT22;7812;50.072;7.036;2023-06-22T00:34:49;19.80;99.90
15426;DHT22;7812;50.072;7.036;2023-06-22T00:37:15;19.80;99.90
15426;DHT22;7812;50.072;7.036;2023-06-22T00:39:42;19.90;99.90
15426;DHT22;7812;50.072;7.036;2023-06-22T00:42:08;19.90;99.90
15426;DHT22;7812;50.072;7.036;2023-06-22T00:44:35;20.00;99.90
15426;DHT22;7812;50.072;7.036;2023-06-22T00:47:01;19.90;99.90
15426;DHT22;7812;50.072;7.036;2023-06-22T00:49:27;19.90;99.90
15426;DHT22;7812;50.072;7.036;2023-06-22T00:51:53;19.80;99.90
15426;DHT22;7812;50.072;7.036;2023-06-22T00:54:19;19.70;99.90
15426;DHT22;7812;50.072;7.036;2023-06-22T00:56:51;19.60;99.90
15426;DHT22;7812;50.072;7.036;2023-06-22T00:59:18;19.50;99.90
15426;DHT22;7812;50.072;7.036;2023-06-22T01:01:44;19.50;99.90
15426;DHT22;7812;50.072;7.036;2023-06-22T01:04:10;19.40;99.90
15426;DHT22;7812;50.072;7.036;2023-06-22T01:06:58;19.30;99.90
15426;DHT22;7812;50.072;7.036;2023-06-22T01:09:32;19.30;99.90
15426;DHT22;7812;50.072;7.036;2023-06-22T01:12:06;19.20;99.90
15426;DHT22;7812;50.072;7.036;2023-06-22T01:14:41;19.20;99.90
15426;DHT22;7812;50.072;7.036;2023-06-22T01:17:09;19.30;99.90
15426;DHT22;7812;50.072;7.036;2023-06-22T01:19:49;19.30;99.90
15426;DHT22;7812;50.072;7.036;2023-06-22T01:22:23;19.20;99.90
15426;DHT22;7812;50.072;7.036;2023-06-22T01:30:30;19.40;99.90
15426;DHT22;7812;50.072;7.036;2023-06-22T01:32:57;19.40;99.90
15426;DHT22;7812;50.072;7.036;2023-06-22T01:35:24;19.40;99.90
15426;DHT22;7812;50.072;7.036;2023-06-22T01:37:50;19.40;99.90
15426;DHT22;7812;50.072;7.036;2023-06-22T01:40:17;19.40;99.90
15426;DHT22;7812;50.072;7.036;2023-06-22T01:42:44;19.40;99.90
15426;DHT22;7812;50.072;7.036;2023-06-22T01:45:11;19.40;99.90
15426;DHT22;7812;50.072;7.036;2023-06-22T01:47:38;19.30;99.90
15426;DHT22;7812;50.072;7.036;2023-06-22T01:50:05;19.40;99.90
15426;DHT22;7812;50.072;7.036;2023-06-22T01:52:30;19.50;99.90
15426;DHT22;7812;50.072;7.036;2023-06-22T01:54:59;19.50;99.90
15426;DHT22;7812;50.072;7.036;2023-06-22T01:57:26;19.40;99.90
15426;DHT22;7812;50.072;7.036;2023-06-22T02:00:04;19.40;99.90
15426;DHT22;7812;50.072;7.036;2023-06-22T02:02:47;19.40;99.90
15426;DHT22;7812;50.072;7.036;2023-06-22T02:05:17;19.40;99.90
15426;DHT22;7812;50.072;7.036;2023-06-22T02:07:55;19.30;99.90
15426;DHT22;7812;50.072;7.036;2023-06-22T02:10:23;19.20;99.90
15426;DHT22;7812;50.072;7.036;2023-06-22T02:12:50;19.20;99.90
15426;DHT22;7812;50.072;7.036;2023-06-22T02:15:17;19.20;99.90
15426;DHT22;7812;50.072;7.036;2023-06-22T02:17:43;19.20;99.90
15426;DHT22;7812;50.072;7.036;2023-06-22T02:20:14;19.20;99.90
15426;DHT22;7812;50.072;7.036;2023-06-22T02:22:41;19.20;99.90
15426;DHT22;7812;50.072;7.036;2023-06-22T02:25:07;19.10;99.90
15426;DHT22;7812;50.072;7.036;2023-06-22T02:27:32;19.00;99.90
15426;DHT22;7812;50.072;7.036;2023-06-22T02:29:58;19.00;99.90
15426;DHT22;7812;50.072;7.036;2023-06-22T02:32:24;19.00;99.90
15426;DHT22;7812;50.072;7.036;2023-06-22T02:34:49;19.00;99.90
15426;DHT22;7812;50.072;7.036;2023-06-22T02:37:16;18.90;99.90
15426;DHT22;7812;50.072;7.036;2023-06-22T02:39:42;19.00;99.90
15426;DHT22;7812;50.072;7.036;2023-06-22T02:42:08;18.90;99.90
15426;DHT22;7812;50.072;7.036;2023-06-22T02:44:36;18.80;99.90
15426;DHT22;7812;50.072;7.036;2023-06-22T02:47:01;18.80;99.90
15426;DHT22;7812;50.072;7.036;2023-06-22T02:49:27;18.70;99.90
15426;DHT22;7812;50.072;7.036;2023-06-22T02:51:53;18.70;99.90
15426;DHT22;7812;50.072;7.036;2023-06-22T02:54:19;18.70;99.90
15426;DHT22;7812;50.072;7.036;2023-06-22T02:56:44;18.70;99.90
15426;DHT22;7812;50.072;7.036;2023-06-22T02:59:10;18.70;99.90
15426;DHT22;7812;50.072;7.036;2023-06-22T03:01:37;18.70;99.90
15426;DHT22;7812;50.072;7.036;2023-06-22T03:04:06;18.60;99.90
15426;DHT22;7812;50.072;7.036;2023-06-22T03:06:33;18.60;99.90
15426;DHT22;7812;50.072;7.036;2023-06-22T03:09:00;18.60;99.90
15426;DHT22;7812;50.072;7.036;2023-06-22T03:11:26;18.50;99.90
15426;DHT22;7812;50.072;7.036;2023-06-22T03:13:52;18.40;99.90
15426;DHT22;7812;50.072;7.036;2023-06-22T03:16:18;18.50;99.90
15426;DHT22;7812;50.072;7.036;2023-06-22T03:18:45;18.50;99.90
15426;DHT22;7812;50.072;7.036;2023-06-22T03:21:10;18.50;99.90
15426;DHT22;7812;50.072;7.036;2023-06-22T03:23:36;18.50;99.90
15426;DHT22;7812;50.072;7.036;2023-06-22T03:26:02;18.60;99.90
15426;DHT22;7812;50.072;7.036;2023-06-22T03:28:28;18.60;99.90
15426;DHT22;7812;50.072;7.036;2023-06-22T03:30:53;18.70;99.90
15426;DHT22;7812;50.072;7.036;2023-06-22T03:33:19;18.70;99.90
15426;DHT22;7812;50.072;7.036;2023-06-22T03:35:45;18.80;99.90
15426;DHT22;7812;50.072;7.036;2023-06-22T03:38:10;18.80;99.90
15426;DHT22;7812;50.072;7.036;2023-06-22T03:40:36;18.80;99.90
15426;DHT22;7812;50.072;7.036;2023-06-22T03:43:02;18.80;99.90
15426;DHT22;7812;50.072;7.036;2023-06-22T03:45:27;18.70;99.90
15426;DHT22;7812;50.072;7.036;2023-06-22T03:47:53;18.70;99.90
15426;DHT22;7812;50.072;7.036;2023-06-22T03:50:18;18.60;99.90
15426;DHT22;7812;50.072;7.036;2023-06-22T03:52:46;18.60;99.90
15426;DHT22;7812;50.072;7.036;2023-06-22T03:55:12;18.70;99.90
15426;DHT22;7812;50.072;7.036;2023-06-22T03:57:37;18.70;99.90
15426;DHT22;7812;50.072;7.036;2023-06-22T04:00:03;18.70;99.90
15426;DHT22;7812;50.072;7.036;2023-06-22T04:02:33;18.80;99.90
15426;DHT22;7812;50.072;7.036;2023-06-22T04:04:58;18.70;99.90
15426;DHT22;7812;50.072;7.036;2023-06-22T04:07:24;18.80;99.90
15426;DHT22;7812;50.072;7.036;2023-06-22T04:09:50;18.90;99.90
15426;DHT22;7812;50.072;7.036;2023-06-22T04:12:16;19.00;99.90
15426;DHT22;7812;50.072;7.036;2023-06-22T04:14:41;19.00;99.90
15426;DHT22;7812;50.072;7.036;2023-06-22T04:17:07;19.00;99.90
15426;DHT22;7812;50.072;7.036;2023-06-22T04:19:33;19.10;99.90
15426;DHT22;7812;50.072;7.036;2023-06-22T04:21:58;19.10;99.90
15426;DHT22;7812;50.072;7.036;2023-06-22T04:24:24;19.10;99.90
15426;DHT22;7812;50.072;7.036;2023-06-22T04:26:50;19.10;99.90
15426;DHT22;7812;50.072;7.036;2023-06-22T04:29:20;19.00;99.90
15426;DHT22;7812;50.072;7.036;2023-06-22T04:31:47;19.10;99.90
15426;DHT22;7812;50.072;7.036;2023-06-22T04:34:16;19.10;99.90
15426;DHT22;7812;50.072;7.036;2023-06-22T04:36:41;19.00;99.90
15426;DHT22;7812;50.072;7.036;2023-06-22T04:39:09;19.00;99.90
15426;DHT22;7812;50.072;7.036;2023-06-22T04:41:36;19.10;99.90
15426;DHT22;7812;50.072;7.036;2023-06-22T04:46:38;19.20;99.90
15426;DHT22;7812;50.072;7.036;2023-06-22T04:49:08;19.10;99.90
15426;DHT22;7812;50.072;7.036;2023-06-22T04:51:41;19.10;99.90
15426;DHT22;7812;50.072;7.036;2023-06-22T04:54:08;19.20;99.90
15426;DHT22;7812;50.072;7.036;2023-06-22T04:56:33;19.30;99.90
15426;DHT22;7812;50.072;7.036;2023-06-22T04:59:00;19.30;99.90
15426;DHT22;7812;50.072;7.036;2023-06-22T05:01:26;19.30;99.90
15426;DHT22;7812;50.072;7.036;2023-06-22T05:03:51;19.40;99.90
15426;DHT22;7812;50.072;7.036;2023-06-22T05:06:22;19.40;99.90
15426;DHT22;7812;50.072;7.036;2023-06-22T05:08:53;19.50;99.90
15426;DHT22;7812;50.072;7.036;2023-06-22T05:11:28;19.60;99.90
15426;DHT22;7812;50.072;7.036;2023-06-22T05:13:54;19.70;99.90
15426;DHT22;7812;50.072;7.036;2023-06-22T05:16:22;20.00;99.90
15426;DHT22;7812;50.072;7.036;2023-06-22T05:18:52;20.10;99.90
15426;DHT22;7812;50.072;7.036;2023-06-22T05:21:26;20.30;99.90
15426;DHT22;7812;50.072;7.036;2023-06-22T05:23:52;20.50;99.90
15426;DHT22;7812;50.072;7.036;2023-06-22T05:26:19;20.50;99.90
15426;DHT22;7812;50.072;7.036;2023-06-22T05:28:46;20.50;99.90
15426;DHT22;7812;50.072;7.036;2023-06-22T05:31:16;20.50;99.90
15426;DHT22;7812;50.072;7.036;2023-06-22T05:33:43;20.50;99.90
15426;DHT22;7812;50.072;7.036;2023-06-22T05:36:09;20.80;99.90
15426;DHT22;7812;50.072;7.036;2023-06-22T05:38:36;21.10;99.90
15426;DHT22;7812;50.072;7.036;2023-06-22T05:41:02;21.30;99.90
15426;DHT22;7812;50.072;7.036;2023-06-22T05:43:28;21.40;99.90
15426;DHT22;7812;50.072;7.036;2023-06-22T05:45:54;21.70;99.90
15426;DHT22;7812;50.072;7.036;2023-06-22T05:48:19;22.00;99.90
15426;DHT22;7812;50.072;7.036;2023-06-22T05:50:45;22.10;99.90
15426;DHT22;7812;50.072;7.036;2023-06-22T05:53:11;22.30;99.90
15426;DHT22;7812;50.072;7.036;2023-06-22T05:55:36;22.40;99.90
15426;DHT22;7812;50.072;7.036;2023-06-22T05:58:02;22.70;99.90
15426;DHT22;7812;50.072;7.036;2023-06-22T06:00:31;23.20;99.90
15426;DHT22;7812;50.072;7.036;2023-06-22T06:02:57;23.10;99.90
15426;DHT22;7812;50.072;7.036;2023-06-22T06:05:22;23.30;99.90
15426;DHT22;7812;50.072;7.036;2023-06-22T06:07:49;23.40;99.90
15426;DHT22;7812;50.072;7.036;2023-06-22T06:10:15;23.60;99.90
15426;DHT22;7812;50.072;7.036;2023-06-22T06:12:40;23.10;99.90
15426;DHT22;7812;50.072;7.036;2023-06-22T06:15:06;23.50;99.90
15426;DHT22;7812;50.072;7.036;2023-06-22T06:17:32;23.70;99.90
15426;DHT22;7812;50.072;7.036;2023-06-22T06:19:59;23.70;99.90
15426;DHT22;7812;50.072;7.036;2023-06-22T06:22:25;23.50;99.90
15426;DHT22;7812;50.072;7.036;2023-06-22T06:24:51;23.50;99.90
15426;DHT22;7812;50.072;7.036;2023-06-22T06:27:16;23.40;99.90
15426;DHT22;7812;50.072;7.036;2023-06-22T06:29:45;23.30;99.90
15426;DHT22;7812;50.072;7.036;2023-06-22T06:32:13;23.00;99.90
15426;DHT22;7812;50.072;7.036;2023-06-22T06:34:39;23.10;99.90
15426;DHT22;7812;50.072;7.036;2023-06-22T06:37:05;23.50;99.90
15426;DHT22;7812;50.072;7.036;2023-06-22T06:39:31;23.50;99.90
15426;DHT22;7812;50.072;7.036;2023-06-22T06:41:57;23.70;99.90
15426;DHT22;7812;50.072;7.036;2023-06-22T06:44:22;23.80;99.90
15426;DHT22;7812;50.072;7.036;2023-06-22T06:46:48;23.80;99.90
15426;DHT22;7812;50.072;7.036;2023-06-22T06:49:14;23.70;99.90
15426;DHT22;7812;50.072;7.036;2023-06-22T06:51:40;23.70;99.90
15426;DHT22;7812;50.072;7.036;2023-06-22T06:54:05;24.00;99.90
15426;DHT22;7812;50.072;7.036;2023-06-22T06:56:31;24.00;99.90
15426;DHT22;7812;50.072;7.036;2023-06-22T06:58:58;24.20;99.90
15426;DHT22;7812;50.072;7.036;2023-06-22T07:01:24;24.40;99.90
15426;DHT22;7812;50.072;7.036;2023-06-22T07:03:49;24.50;99.90
15426;DHT22;7812;50.072;7.036;2023-06-22T07:06:15;24.60;99.90
15426;DHT22;7812;50.072;7.036;2023-06-22T07:08:42;24.50;99.90
15426;DHT22;7812;50.072;7.036;2023-06-22T07:11:08;24.40;99.90
15426;DHT22;7812;50.072;7.036;2023-06-22T07:13:34;24.70;99.90
15426;DHT22;7812;50.072;7.036;2023-06-22T07:15:59;25.00;99.90
15426;DHT22;7812;50.072;7.036;2023-06-22T07:18:25;24.90;99.90
15426;DHT22;7812;50.072;7.036;2023-06-22T07:20:52;25.00;99.90
15426;DHT22;7812;50.072;7.036;2023-06-22T07:23:18;25.30;99.90
15426;DHT22;7812;50.072;7.036;2023-06-22T07:25:43;25.80;99.90
15426;DHT22;7812;50.072;7.036;2023-06-22T07:28:09;25.80;99.90
15426;DHT22;7812;50.072;7.036;2023-06-22T07:30:35;26.60;99.90
15426;DHT22;7812;50.072;7.036;2023-06-22T07:33:01;26.20;99.90
15426;DHT22;7812;50.072;7.036;2023-06-22T07:35:29;26.30;99.90
15426;DHT22;7812;50.072;7.036;2023-06-22T07:37:55;26.60;99.90
15426;DHT22;7812;50.072;7.036;2023-06-22T07:40:21;26.90;99.90
15426;DHT22;7812;50.072;7.036;2023-06-22T07:42:46;27.30;99.90
15426;DHT22;7812;50.072;7.036;2023-06-22T07:45:17;28.10;99.90
15426;DHT22;7812;50.072;7.036;2023-06-22T07:47:43;28.60;99.90
15426;DHT22;7812;50.072;7.036;2023-06-22T07:50:09;28.60;99.90
15426;DHT22;7812;50.072;7.036;2023-06-22T07:52:35;28.80;99.90
15426;DHT22;7812;50.072;7.036;2023-06-22T07:55:01;28.40;99.90
15426;DHT22;7812;50.072;7.036;2023-06-22T07:57:27;28.60;99.90
15426;DHT22;7812;50.072;7.036;2023-06-22T08:00:02;28.00;99.90
15426;DHT22;7812;50.072;7.036;2023-06-22T08:02:31;28.50;99.90
15426;DHT22;7812;50.072;7.036;2023-06-22T08:04:57;29.30;99.90
15426;DHT22;7812;50.072;7.036;2023-06-22T08:07:23;29.20;99.90
15426;DHT22;7812;50.072;7.036;2023-06-22T08:09:49;29.40;99.90
15426;DHT22;7812;50.072;7.036;2023-06-22T08:12:15;29.60;99.90
15426;DHT22;7812;50.072;7.036;2023-06-22T08:14:42;29.60;99.90
15426;DHT22;7812;50.072;7.036;2023-06-22T08:17:08;30.00;99.90
15426;DHT22;7812;50.072;7.036;2023-06-22T08:19:34;30.60;99.90
15426;DHT22;7812;50.072;7.036;2023-06-22T08:21:59;30.00;99.90
15426;DHT22;7812;50.072;7.036;2023-06-22T08:24:25;30.60;99.90
15426;DHT22;7812;50.072;7.036;2023-06-22T08:26:52;29.90;99.90
15426;DHT22;7812;50.072;7.036;2023-06-22T08:29:17;30.60;99.90
15426;DHT22;7812;50.072;7.036;2023-06-22T08:31:46;30.00;99.90
15426;DHT22;7812;50.072;7.036;2023-06-22T08:34:11;30.20;99.90
15426;DHT22;7812;50.072;7.036;2023-06-22T08:36:37;30.20;99.90
15426;DHT22;7812;50.072;7.036;2023-06-22T08:39:10;30.60;99.90
15426;DHT22;7812;50.072;7.036;2023-06-22T08:41:36;30.70;99.90
15426;DHT22;7812;50.072;7.036;2023-06-22T08:44:01;29.90;99.90
15426;DHT22;7812;50.072;7.036;2023-06-22T08:46:28;30.00;99.90
15426;DHT22;7812;50.072;7.036;2023-06-22T08:48:59;28.90;99.90
15426;DHT22;7812;50.072;7.036;2023-06-22T08:51:26;28.80;99.90
15426;DHT22;7812;50.072;7.036;2023-06-22T08:53:52;28.60;99.90
15426;DHT22;7812;50.072;7.036;2023-06-22T08:56:17;28.90;99.90
15426;DHT22;7812;50.072;7.036;2023-06-22T08:58:44;28.70;99.90
15426;DHT22;7812;50.072;7.036;2023-06-22T09:01:09;28.10;99.90
15426;DHT22;7812;50.072;7.036;2023-06-22T09:03:35;27.40;99.90
15426;DHT22;7812;50.072;7.036;2023-06-22T09:06:03;27.10;99.90
15426;DHT22;7812;50.072;7.036;2023-06-22T09:08:28;26.60;99.90
15426;DHT22;7812;50.072;7.036;2023-06-22T09:10:54;26.20;99.90
15426;DHT22;7812;50.072;7.036;2023-06-22T09:13:20;25.90;99.90
15426;DHT22;7812;50.072;7.036;2023-06-22T09:15:46;25.40;99.90
15426;DHT22;7812;50.072;7.036;2023-06-22T09:18:14;25.30;99.90
15426;DHT22;7812;50.072;7.036;2023-06-22T09:20:39;25.10;99.90
15426;DHT22;7812;50.072;7.036;2023-06-22T09:23:05;25.10;99.90
15426;DHT22;7812;50.072;7.036;2023-06-22T09:25:32;25.20;99.90
15426;DHT22;7812;50.072;7.036;2023-06-22T09:27:58;25.00;99.90
15426;DHT22;7812;50.072;7.036;2023-06-22T09:30:23;25.00;99.90
15426;DHT22;7812;50.072;7.036;2023-06-22T09:32:49;25.10;99.90
15426;DHT22;7812;50.072;7.036;2023-06-22T09:35:15;25.20;99.90
15426;DHT22;7812;50.072;7.036;2023-06-22T09:37:41;25.20;99.90
15426;DHT22;7812;50.072;7.036;2023-06-22T09:40:07;25.20;99.90
15426;DHT22;7812;50.072;7.036;2023-06-22T09:42:38;25.00;99.90
15426;DHT22;7812;50.072;7.036;2023-06-22T09:45:05;24.90;99.90
15426;DHT22;7812;50.072;7.036;2023-06-22T09:47:31;24.90;99.90
15426;DHT22;7812;50.072;7.036;2023-06-22T09:49:56;24.70;99.90
15426;DHT22;7812;50.072;7.036;2023-06-22T09:52:24;24.50;99.90
15426;DHT22;7812;50.072;7.036;2023-06-22T09:54:50;24.20;99.90
15426;DHT22;7812;50.072;7.036;2023-06-22T09:57:15;24.00;99.90
15426;DHT22;7812;50.072;7.036;2023-06-22T09:59:41;24.00;99.90
15426;DHT22;7812;50.072;7.036;2023-06-22T10:02:07;23.60;99.90
15426;DHT22;7812;50.072;7.036;2023-06-22T10:04:34;23.70;99.90
15426;DHT22;7812;50.072;7.036;2023-06-22T10:07:00;23.90;99.90
15426;DHT22;7812;50.072;7.036;2023-06-22T10:09:26;23.90;99.90
15426;DHT22;7812;50.072;7.036;2023-06-22T10:11:52;23.90;99.90
15426;DHT22;7812;50.072;7.036;2023-06-22T10:14:17;24.30;99.90
15426;DHT22;7812;50.072;7.036;2023-06-22T10:16:43;24.50;99.90
15426;DHT22;7812;50.072;7.036;2023-06-22T10:19:09;24.70;99.90
15426;DHT22;7812;50.072;7.036;2023-06-22T10:21:34;24.50;99.90
15426;DHT22;7812;50.072;7.036;2023-06-22T10:24:00;24.30;99.90
15426;DHT22;7812;50.072;7.036;2023-06-22T10:26:32;24.50;99.90
15426;DHT22;7812;50.072;7.036;2023-06-22T10:28:58;24.60;99.90
15426;DHT22;7812;50.072;7.036;2023-06-22T10:31:24;25.10;99.90
15426;DHT22;7812;50.072;7.036;2023-06-22T10:33:50;25.60;99.90
15426;DHT22;7812;50.072;7.036;2023-06-22T10:36:16;26.20;99.90
15426;DHT22;7812;50.072;7.036;2023-06-22T10:38:41;26.80;99.90
15426;DHT22;7812;50.072;7.036;2023-06-22T10:41:07;26.90;99.90
15426;DHT22;7812;50.072;7.036;2023-06-22T10:43:32;27.40;99.90
15426;DHT22;7812;50.072;7.036;2023-06-22T10:45:58;28.20;99.90
15426;DHT22;7812;50.072;7.036;2023-06-22T10:48:24;29.70;99.90
15426;DHT22;7812;50.072;7.036;2023-06-22T10:50:49;30.50;99.90
15426;DHT22;7812;50.072;7.036;2023-06-22T10:53:15;30.60;99.90
15426;DHT22;7812;50.072;7.036;2023-06-22T10:55:41;30.80;99.90
15426;DHT22;7812;50.072;7.036;2023-06-22T10:58:06;31.10;99.90
15426;DHT22;7812;50.072;7.036;2023-06-22T11:00:32;30.40;99.90
15426;DHT22;7812;50.072;7.036;2023-06-22T11:02:58;29.90;99.90
15426;DHT22;7812;50.072;7.036;2023-06-22T11:05:24;29.80;99.90
15426;DHT22;7812;50.072;7.036;2023-06-22T11:07:49;29.80;99.90
15426;DHT22;7812;50.072;7.036;2023-06-22T11:10:16;30.10;99.90
15426;DHT22;7812;50.072;7.036;2023-06-22T11:12:41;30.40;99.90
15426;DHT22;7812;50.072;7.036;2023-06-22T11:15:09;30.10;99.90
15426;DHT22;7812;50.072;7.036;2023-06-22T11:17:36;30.70;99.90
15426;DHT22;7812;50.072;7.036;2023-06-22T11:20:02;31.50;99.90
15426;DHT22;7812;50.072;7.036;2023-06-22T11:22:34;30.70;99.90
15426;DHT22;7812;50.072;7.036;2023-06-22T11:25:00;30.70;99.90
15426;DHT22;7812;50.072;7.036;2023-06-22T11:27:26;30.70;99.90
15426;DHT22;7812;50.072;7.036;2023-06-22T11:29:52;30.50;99.90
15426;DHT22;7812;50.072;7.036;2023-06-22T11:32:18;30.20;99.90
15426;DHT22;7812;50.072;7.036;2023-06-22T11:34:44;29.70;99.90
15426;DHT22;7812;50.072;7.036;2023-06-22T11:37:10;30.10;99.90
15426;DHT22;7812;50.072;7.036;2023-06-22T11:39:35;29.90;99.90
15426;DHT22;7812;50.072;7.036;2023-06-22T11:42:01;29.80;99.90
15426;DHT22;7812;50.072;7.036;2023-06-22T11:44:27;30.00;99.90
15426;DHT22;7812;50.072;7.036;2023-06-22T11:46:53;30.20;99.90
15426;DHT22;7812;50.072;7.036;2023-06-22T11:49:18;30.30;99.90
15426;DHT22;7812;50.072;7.036;2023-06-22T11:51:44;31.20;99.90
15426;DHT22;7812;50.072;7.036;2023-06-22T11:54:13;31.70;99.90
15426;DHT22;7812;50.072;7.036;2023-06-22T11:56:39;31.80;99.90
15426;DHT22;7812;50.072;7.036;2023-06-22T11:59:05;31.60;99.90
15426;DHT22;7812;50.072;7.036;2023-06-22T12:01:33;31.60;99.90
15426;DHT22;7812;50.072;7.036;2023-06-22T12:03:59;31.50;99.90
15426;DHT22;7812;50.072;7.036;2023-06-22T12:06:25;32.70;99.90
15426;DHT22;7812;50.072;7.036;2023-06-22T12:08:50;33.30;99.90
15426;DHT22;7812;50.072;7.036;2023-06-22T12:11:16;33.60;99.90
15426;DHT22;7812;50.072;7.036;2023-06-22T12:13:42;34.00;99.90
15426;DHT22;7812;50.072;7.036;2023-06-22T12:16:07;33.30;99.90
15426;DHT22;7812;50.072;7.036;2023-06-22T12:18:34;33.30;99.90
15426;DHT22;7812;50.072;7.036;2023-06-22T12:21:00;33.70;99.90
15426;DHT22;7812;50.072;7.036;2023-06-22T12:23:26;33.80;99.90
15426;DHT22;7812;50.072;7.036;2023-06-22T12:25:51;32.60;99.90
15426;DHT22;7812;50.072;7.036;2023-06-22T12:28:17;33.10;99.90
15426;DHT22;7812;50.072;7.036;2023-06-22T12:30:43;33.00;99.90
15426;DHT22;7812;50.072;7.036;2023-06-22T12:33:09;33.60;99.90
15426;DHT22;7812;50.072;7.036;2023-06-22T12:35:35;33.40;99.90
15426;DHT22;7812;50.072;7.036;2023-06-22T12:38:00;32.90;99.90
15426;DHT22;7812;50.072;7.036;2023-06-22T12:40:26;33.00;99.90
15426;DHT22;7812;50.072;7.036;2023-06-22T12:42:52;33.40;99.90
15426;DHT22;7812;50.072;7.036;2023-06-22T12:45:17;33.40;99.90
15426;DHT22;7812;50.072;7.036;2023-06-22T12:47:44;32.20;99.90
15426;DHT22;7812;50.072;7.036;2023-06-22T12:50:10;32.10;99.90
15426;DHT22;7812;50.072;7.036;2023-06-22T12:52:37;33.10;99.90
15426;DHT22;7812;50.072;7.036;2023-06-22T12:55:06;32.80;99.90
15426;DHT22;7812;50.072;7.036;2023-06-22T12:57:32;31.80;99.90
15426;DHT22;7812;50.072;7.036;2023-06-22T12:59:58;30.90;99.90
15426;DHT22;7812;50.072;7.036;2023-06-22T13:02:25;30.80;99.90
15426;DHT22;7812;50.072;7.036;2023-06-22T13:04:51;30.70;99.90
15426;DHT22;7812;50.072;7.036;2023-06-22T13:07:17;30.40;99.90
15426;DHT22;7812;50.072;7.036;2023-06-22T13:09:42;30.00;99.90
15426;DHT22;7812;50.072;7.036;2023-06-22T13:12:10;29.70;99.90
15426;DHT22;7812;50.072;7.036;2023-06-22T13:14:36;30.00;99.90
15426;DHT22;7812;50.072;7.036;2023-06-22T13:17:02;30.10;99.90
15426;DHT22;7812;50.072;7.036;2023-06-22T13:19:27;30.10;99.90
15426;DHT22;7812;50.072;7.036;2023-06-22T13:21:57;29.90;99.90
15426;DHT22;7812;50.072;7.036;2023-06-22T13:24:23;29.30;99.90
15426;DHT22;7812;50.072;7.036;2023-06-22T13:26:49;28.50;99.90
15426;DHT22;7812;50.072;7.036;2023-06-22T13:29:14;27.90;99.90
15426;DHT22;7812;50.072;7.036;2023-06-22T13:31:40;26.60;99.90
15426;DHT22;7812;50.072;7.036;2023-06-22T13:34:06;26.10;99.90
15426;DHT22;7812;50.072;7.036;2023-06-22T13:36:32;25.30;99.90
15426;DHT22;7812;50.072;7.036;2023-06-22T13:38:57;24.60;99.90
15426;DHT22;7812;50.072;7.036;2023-06-22T13:41:23;23.80;99.90
15426;DHT22;7812;50.072;7.036;2023-06-22T13:43:49;23.60;99.90
15426;DHT22;7812;50.072;7.036;2023-06-22T13:46:15;23.60;99.90
15426;DHT22;7812;50.072;7.036;2023-06-22T13:48:41;23.10;99.90
15426;DHT22;7812;50.072;7.036;2023-06-22T13:51:07;23.10;99.90
15426;DHT22;7812;50.072;7.036;2023-06-22T13:53:33;22.90;99.90
15426;DHT22;7812;50.072;7.036;2023-06-22T13:55:59;22.70;99.90
15426;DHT22;7812;50.072;7.036;2023-06-22T13:58:24;22.50;99.90
15426;DHT22;7812;50.072;7.036;2023-06-22T14:00:50;22.40;99.90
15426;DHT22;7812;50.072;7.036;2023-06-22T14:03:16;22.30;99.90
15426;DHT22;7812;50.072;7.036;2023-06-22T14:05:42;21.40;99.90
15426;DHT22;7812;50.072;7.036;2023-06-22T14:08:08;20.70;99.90
15426;DHT22;7812;50.072;7.036;2023-06-22T14:10:34;20.30;99.90
15426;DHT22;7812;50.072;7.036;2023-06-22T14:13:00;20.20;99.90
15426;DHT22;7812;50.072;7.036;2023-06-22T14:15:26;19.90;99.90
15426;DHT22;7812;50.072;7.036;2023-06-22T14:17:52;19.60;99.90
15426;DHT22;7812;50.072;7.036;2023-06-22T14:20:18;19.50;99.90
15426;DHT22;7812;50.072;7.036;2023-06-22T14:22:43;19.40;99.90
15426;DHT22;7812;50.072;7.036;2023-06-22T14:25:09;19.50;99.90
15426;DHT22;7812;50.072;7.036;2023-06-22T14:27:35;19.50;99.90
15426;DHT22;7812;50.072;7.036;2023-06-22T14:30:01;19.60;99.90
15426;DHT22;7812;50.072;7.036;2023-06-22T14:32:28;19.60;99.90
15426;DHT22;7812;50.072;7.036;2023-06-22T14:34:55;19.60;99.90
15426;DHT22;7812;50.072;7.036;2023-06-22T14:37:21;19.50;99.90
15426;DHT22;7812;50.072;7.036;2023-06-22T14:39:46;19.50;99.90
15426;DHT22;7812;50.072;7.036;2023-06-22T14:42:12;19.50;99.90
15426;DHT22;7812;50.072;7.036;2023-06-22T14:44:38;19.60;99.90
15426;DHT22;7812;50.072;7.036;2023-06-22T14:47:04;19.60;99.90
15426;DHT22;7812;50.072;7.036;2023-06-22T14:49:30;19.70;99.90
15426;DHT22;7812;50.072;7.036;2023-06-22T14:51:56;19.70;99.90
15426;DHT22;7812;50.072;7.036;2023-06-22T14:54:21;19.80;99.90
15426;DHT22;7812;50.072;7.036;2023-06-22T14:56:50;19.90;99.90
15426;DHT22;7812;50.072;7.036;2023-06-22T14:59:16;20.00;99.90
15426;DHT22;7812;50.072;7.036;2023-06-22T15:01:42;19.70;99.90
15426;DHT22;7812;50.072;7.036;2023-06-22T15:04:07;19.60;99.90
15426;DHT22;7812;50.072;7.036;2023-06-22T15:06:33;19.70;99.90
15426;DHT22;7812;50.072;7.036;2023-06-22T15:08:59;19.70;99.90
15426;DHT22;7812;50.072;7.036;2023-06-22T15:11:24;19.80;99.90
15426;DHT22;7812;50.072;7.036;2023-06-22T15:13:50;19.90;99.90
15426;DHT22;7812;50.072;7.036;2023-06-22T15:16:16;20.10;99.90
15426;DHT22;7812;50.072;7.036;2023-06-22T15:18:41;20.20;99.90
15426;DHT22;7812;50.072;7.036;2023-06-22T15:21:07;20.30;99.90
15426;DHT22;7812;50.072;7.036;2023-06-22T15:23:33;20.40;99.90
15426;DHT22;7812;50.072;7.036;2023-06-22T15:26:02;20.30;99.90
15426;DHT22;7812;50.072;7.036;2023-06-22T15:28:29;20.40;99.90
15426;DHT22;7812;50.072;7.036;2023-06-22T15:30:54;20.60;99.90
15426;DHT22;7812;50.072;7.036;2023-06-22T15:33:20;20.80;99.90
15426;DHT22;7812;50.072;7.036;2023-06-22T15:35:46;20.90;99.90
15426;DHT22;7812;50.072;7.036;2023-06-22T15:38:12;21.20;99.90
15426;DHT22;7812;50.072;7.036;2023-06-22T15:40:37;21.30;99.90
15426;DHT22;7812;50.072;7.036;2023-06-22T15:43:03;21.40;99.90
15426;DHT22;7812;50.072;7.036;2023-06-22T15:45:29;21.40;99.90
15426;DHT22;7812;50.072;7.036;2023-06-22T15:47:54;21.30;99.90